createdAt,value
2018-05-29T00:04:06.943Z,67
2018-05-29T00:09:06.939Z,67.3
2018-05-29T00:14:07.163Z,68.3
2018-05-29T00:19:18.502Z,69.2
2018-05-29T00:24:18.450Z,69.9
2018-05-29T00:29:18.211Z,70.9
2018-05-29T00:34:18.559Z,69.9
2018-05-29T00:39:18.428Z,70.7
2018-05-29T00:44:18.226Z,71
2018-05-29T00:49:18.237Z,70
2018-05-29T00:54:18.215Z,70
2018-05-29T00:59:18.240Z,70.8
2018-05-29T01:04:30.421Z,71.9
2018-05-29T01:09:29.919Z,73
2018-05-29T01:14:30.219Z,73.4
2018-05-29T01:19:29.909Z,72.6
2018-05-29T01:24:30.104Z,72.5
2018-05-29T01:29:29.926Z,73.3
2018-05-29T01:34:30.140Z,72.7
2018-05-29T01:39:29.937Z,73.4
2018-05-29T01:44:29.947Z,72.8
2018-05-29T01:49:41.756Z,73.8
2018-05-29T01:54:41.645Z,74.4
2018-05-29T01:59:41.594Z,74.2
2018-05-29T02:04:42.480Z,73.6
2018-05-29T02:09:41.668Z,74.1
2018-05-29T02:14:42.778Z,75.4
2018-05-29T02:19:41.655Z,75.2
2018-05-29T02:24:41.628Z,76
2018-05-29T02:29:41.705Z,76.3
2018-05-29T02:34:41.505Z,76.3
2018-05-29T02:39:42.670Z,77
2018-05-29T02:44:41.686Z,76.5
2018-05-29T02:49:41.489Z,77.4
2018-05-29T02:54:41.901Z,78.6
2018-05-29T02:59:53.968Z,77.7
2018-05-29T03:04:53.807Z,78.1
2018-05-29T03:09:53.891Z,78.2
2018-05-29T03:14:54.873Z,77.9
2018-05-29T03:19:53.807Z,77.8
2018-05-29T03:24:54.338Z,78.3
2018-05-29T03:29:54.160Z,78.3
2018-05-29T03:34:53.945Z,78.1
2018-05-29T03:39:53.931Z,79.7
2018-05-29T03:45:05.958Z,79.8
2018-05-29T03:50:05.811Z,80.1
2018-05-29T03:55:05.690Z,79.9
2018-05-29T04:00:05.881Z,79.6
2018-05-29T04:05:05.941Z,80.1
2018-05-29T04:10:06.168Z,77.9
2018-05-29T04:15:06.718Z,78
2018-05-29T04:20:05.990Z,77.1
2018-05-29T04:25:05.789Z,76.3
2018-05-29T04:30:19.532Z,74.4
2018-05-29T04:35:19.686Z,74.4
2018-05-29T04:40:19.469Z,74.2
2018-05-29T04:45:19.955Z,73.1
2018-05-29T04:50:19.408Z,71.5
2018-05-29T04:55:19.260Z,71.2
2018-05-29T05:00:23.383Z,70.8
2018-05-29T05:05:20.717Z,70.5
2018-05-29T05:10:20.544Z,70.4
2018-05-29T05:15:32.938Z,69
2018-05-29T05:20:32.432Z,68.9
2018-05-29T05:25:32.671Z,68.4
2018-05-29T05:30:32.584Z,67.3
2018-05-29T05:35:32.641Z,65.8
2018-05-29T05:40:32.431Z,65.2
2018-05-29T05:45:32.757Z,65.4
2018-05-29T05:50:32.451Z,65.2
2018-05-29T05:55:32.464Z,64.1
2018-05-29T06:00:32.583Z,61.5
2018-05-29T06:05:33.474Z,60.2
2018-05-29T06:10:32.659Z,59.4
2018-05-29T06:15:33.037Z,58.9
2018-05-29T06:20:32.940Z,55.4
2018-05-29T06:25:44.961Z,55.2
2018-05-29T06:30:44.885Z,53.7
2018-05-29T06:35:44.905Z,51.7
2018-05-29T06:40:45.183Z,53.3
2018-05-29T06:45:44.711Z,53.2
2018-05-29T06:50:44.915Z,49.4
2018-05-29T06:55:44.708Z,50.2
2018-05-29T07:00:45.603Z,48.5
2018-05-29T07:05:45.704Z,47.9
2018-05-29T07:10:56.201Z,47.2
2018-05-29T07:15:56.146Z,45.9
2018-05-29T07:20:56.067Z,44.5
2018-05-29T07:25:55.872Z,44.3
2018-05-29T07:30:55.880Z,40.6
2018-05-29T07:35:55.949Z,40.5
2018-05-29T07:40:56.114Z,40.1
2018-05-29T07:45:56.179Z,41.6
2018-05-29T07:50:55.890Z,44.1
2018-05-29T07:55:55.946Z,40.1
2018-05-29T08:00:56.155Z,38.4
2018-05-29T08:05:56.175Z,36.1
2018-05-29T08:10:56.012Z,35.7
2018-05-29T08:15:56.136Z,35
2018-05-29T08:21:08.554Z,35
2018-05-29T08:26:08.275Z,33.5
2018-05-29T08:31:08.426Z,35
2018-05-29T08:36:08.300Z,34.6
2018-05-29T08:41:08.499Z,35.1
2018-05-29T08:46:08.377Z,35.5
2018-05-29T08:51:08.286Z,34.4
2018-05-29T08:56:08.317Z,31.7
2018-05-29T09:01:08.415Z,31.4
2018-05-29T09:06:20.088Z,32.7
2018-05-29T09:11:20.229Z,31.6
2018-05-29T09:16:20.075Z,31.7
2018-05-29T09:21:21.121Z,32.8
2018-05-29T09:26:20.140Z,31.8
2018-05-29T09:31:20.018Z,31.8
2018-05-29T09:36:19.935Z,32.4
2018-05-29T09:41:22.443Z,32.5
2018-05-29T09:46:21.330Z,32.6
2018-05-29T09:51:33.455Z,31.5
2018-05-29T09:56:33.412Z,31.8
2018-05-29T10:01:33.180Z,30.8
2018-05-29T10:06:34.535Z,31.2
2018-05-29T10:11:34.377Z,30.5
2018-05-29T10:16:34.288Z,29.8
2018-05-29T10:21:34.493Z,30.4
2018-05-29T10:26:37.699Z,30.6
2018-05-29T10:31:37.652Z,31.7
2018-05-29T10:36:49.792Z,30.4
2018-05-29T10:41:49.659Z,29.7
2018-05-29T10:46:50.782Z,29.1
2018-05-29T10:51:49.754Z,30.4
2018-05-29T10:56:49.663Z,31.2
2018-05-29T11:01:49.713Z,29.7
2018-05-29T11:06:49.974Z,29.5
2018-05-29T11:11:51.228Z,29.6
2018-05-29T11:16:51.060Z,29
2018-05-29T11:22:03.512Z,27.8
2018-05-29T11:27:03.379Z,29
2018-05-29T11:32:03.357Z,28.3
2018-05-29T11:37:03.463Z,28.1
2018-05-29T11:42:04.667Z,27.9
2018-05-29T11:47:03.503Z,29.8
2018-05-29T11:52:03.473Z,28.7
2018-05-29T11:57:07.401Z,29.7
2018-05-29T12:02:08.331Z,28.7
2018-05-29T12:07:19.680Z,27.9
2018-05-29T12:12:19.393Z,29.9
2018-05-29T12:17:19.881Z,30
2018-05-29T12:22:19.711Z,29.4
2018-05-29T12:27:19.553Z,30.1
2018-05-29T12:32:19.419Z,30.5
2018-05-29T12:37:19.649Z,30.3
2018-05-29T12:42:19.590Z,30.1
2018-05-29T12:47:19.610Z,29.8
2018-05-29T12:52:19.914Z,28.4
2018-05-29T12:57:20.442Z,28.6
2018-05-29T13:02:19.438Z,28.6
2018-05-29T13:07:19.813Z,29.1
2018-05-29T13:12:19.397Z,29.1
2018-05-29T13:17:33.842Z,29.2
2018-05-29T13:22:34.758Z,28.8
2018-05-29T13:27:33.695Z,29.5
2018-05-29T13:32:33.962Z,29.9
2018-05-29T13:37:33.541Z,29.7
2018-05-29T13:42:33.709Z,31.4
2018-05-29T13:47:33.767Z,31.2
2018-05-29T13:52:34.745Z,32
2018-05-29T13:57:34.425Z,33
2018-05-29T14:02:47.100Z,34.1
2018-05-29T14:07:46.998Z,35.3
2018-05-29T14:12:46.861Z,33.9
2018-05-29T14:17:46.868Z,32.8
2018-05-29T14:22:47.298Z,32.8
2018-05-29T14:27:46.880Z,32.4
2018-05-29T14:32:46.832Z,32.6
2018-05-29T14:37:49.822Z,33.3
2018-05-29T14:42:49.535Z,33.5
2018-05-29T14:48:02.215Z,34.8
2018-05-29T14:53:01.963Z,34.3
2018-05-29T14:58:02.052Z,34.1
2018-05-29T15:03:01.942Z,34.4
2018-05-29T15:08:01.961Z,34.6
2018-05-29T15:13:01.956Z,33.9
2018-05-29T15:18:03.103Z,34.4
2018-05-29T15:23:04.575Z,33.2
2018-05-29T15:28:04.385Z,34.1
2018-05-29T15:33:17.063Z,34.2
2018-05-29T15:38:16.613Z,34.6
2018-05-29T15:43:17.590Z,34.9
2018-05-29T15:48:16.852Z,35.5
2018-05-29T15:53:17.140Z,35.5
2018-05-29T15:58:20.823Z,35.6
2018-05-29T16:03:16.762Z,36.6
2018-05-29T16:08:20.009Z,37
2018-05-29T16:13:20.204Z,37.6
2018-05-29T16:18:30.416Z,37.9
2018-05-29T16:23:30.264Z,38.5
2018-05-29T16:28:30.331Z,39.6
2018-05-29T16:33:30.377Z,39.2
2018-05-29T16:38:30.977Z,39.3
2018-05-29T16:43:37.548Z,40
2018-05-29T16:48:36.334Z,40.8
2018-05-29T16:53:36.398Z,41.4
2018-05-29T16:58:37.472Z,40.8
2018-05-29T17:03:36.825Z,41
2018-05-29T17:08:37.407Z,40.8
2018-05-29T17:13:37.417Z,42
2018-05-29T17:18:41.990Z,42.1
2018-05-29T17:23:45.947Z,41.2
2018-05-29T17:28:53.096Z,41.6
2018-05-29T17:33:56.324Z,42.8
2018-05-29T17:38:52.619Z,42.6
2018-05-29T17:43:52.776Z,41.8
2018-05-29T17:48:52.626Z,41.9
2018-05-29T17:53:52.629Z,41.8
2018-05-29T17:58:52.652Z,42.8
2018-05-29T18:03:53.891Z,42
2018-05-29T18:08:52.649Z,43.1
2018-05-29T18:14:05.793Z,43.1
2018-05-29T18:19:04.305Z,43.6
2018-05-29T18:24:04.313Z,43.6
2018-05-29T18:29:04.305Z,43.6
2018-05-29T18:34:06.095Z,42.6
2018-05-29T18:39:04.297Z,42.9
2018-05-29T18:44:04.289Z,43.6
2018-05-29T18:49:06.026Z,43.9
2018-05-29T18:54:05.432Z,44.1
2018-05-29T18:59:18.851Z,44.2
2018-05-29T19:04:17.497Z,43.8
2018-05-29T19:09:18.008Z,44.6
2018-05-29T19:14:17.490Z,46.1
2018-05-29T19:19:17.472Z,46.8
2018-05-29T19:24:17.703Z,46.9
2018-05-29T19:29:18.634Z,46.9
2018-05-29T19:34:20.996Z,47.3
2018-05-29T19:39:19.947Z,47.1
2018-05-29T19:44:31.635Z,47.5
2018-05-29T19:49:31.534Z,49.1
2018-05-29T19:54:31.474Z,50
2018-05-29T19:59:31.525Z,49
2018-05-29T20:04:31.733Z,49.8
2018-05-29T20:09:32.590Z,49.9
2018-05-29T20:14:31.345Z,51.2
2018-05-29T20:19:31.747Z,51.7
2018-05-29T20:24:31.814Z,50
2018-05-29T20:29:44.027Z,51.4
2018-05-29T20:34:43.331Z,51.1
2018-05-29T20:39:43.683Z,53
2018-05-29T20:44:43.356Z,52.4
2018-05-29T20:49:43.496Z,53
2018-05-29T20:54:44.541Z,53.6
2018-05-29T20:59:43.370Z,53.2
2018-05-29T21:04:45.057Z,53.3
2018-05-29T21:09:44.809Z,53.6
2018-05-29T21:14:57.385Z,54.3
2018-05-29T21:19:57.119Z,53.9
2018-05-29T21:24:57.110Z,56.7
2018-05-29T21:29:57.210Z,57
2018-05-29T21:34:57.169Z,58.4
2018-05-29T21:39:57.274Z,56.2
2018-05-29T21:44:57.379Z,57.4
2018-05-29T21:49:57.172Z,57.2
2018-05-29T21:54:57.344Z,60.2
2018-05-29T22:00:08.952Z,60.6
2018-05-29T22:05:11.599Z,59.3
2018-05-29T22:10:08.520Z,59.2
2018-05-29T22:15:08.533Z,61
2018-05-29T22:20:08.559Z,61.5
2018-05-29T22:25:08.766Z,61.8
2018-05-29T22:30:08.747Z,61.1
2018-05-29T22:35:10.779Z,61.8
2018-05-29T22:40:10.657Z,63.2
2018-05-29T22:45:22.664Z,62.6
2018-05-29T22:50:22.381Z,62.8
2018-05-29T22:55:22.377Z,62.1
2018-05-29T23:00:22.376Z,61.5
2018-05-29T23:05:23.687Z,62.8
2018-05-29T23:10:22.388Z,62.4
2018-05-29T23:15:22.620Z,63.6
2018-05-29T23:20:25.859Z,63.8
2018-05-29T23:25:25.202Z,64.1
2018-05-29T23:30:35.559Z,65.9
2018-05-29T23:35:35.502Z,65.1
2018-05-29T23:40:35.596Z,64.9
2018-05-29T23:45:35.290Z,65.5
2018-05-29T23:50:35.312Z,64.8
2018-05-29T23:55:35.308Z,66.6
